Time;durP1;ratioP1;P1;durP2;ratioP2;P2;SDS_P1;SDS_P2;PMS_P1;PMS_P2;Temp;Humidity;BMP_temperature;BMP_pressure;BME280_temperature;BME280_humidity;BME280_pressure;Samples;Min_cycle;Max_cycle;Signal;HPM_P1;HPM_P2
2022/05/28 00:00:38;;;;;;;5.90;3.17;;;9.60;99.90;;;;;;4196846;28;20192;-71
2022/05/28 00:02:38;;;;;;;6.97;3.23;;;9.70;99.90;;;;;;4196925;28;20696;-71
2022/05/28 00:04:39;;;;;;;3.90;3.27;;;9.60;99.90;;;;;;4196817;28;20685;-71
2022/05/28 00:06:39;;;;;;;6.17;3.20;;;9.50;99.90;;;;;;4196054;28;20188;-71
2022/05/28 00:08:40;;;;;;;5.10;3.50;;;9.50;99.90;;;;;;4196625;28;20182;-71
2022/05/28 00:10:41;;;;;;;6.43;3.20;;;9.60;99.90;;;;;;4196658;28;20180;-71
2022/05/28 00:12:42;;;;;;;5.73;3.63;;;9.60;99.90;;;;;;4196804;28;20210;-71
2022/05/28 00:14:42;;;;;;;5.00;3.77;;;9.70;99.90;;;;;;4196681;28;20180;-71
2022/05/28 00:16:45;;;;;;;5.70;3.37;;;9.80;99.90;;;;;;4196070;28;20189;-70
2022/05/28 00:18:47;;;;;;;6.37;3.87;;;9.80;99.90;;;;;;4196647;28;20193;-71
2022/05/28 00:20:47;;;;;;;4.77;3.27;;;9.90;99.90;;;;;;4196606;28;20189;-70
2022/05/28 00:22:48;;;;;;;4.03;3.30;;;10.00;99.90;;;;;;4196559;28;20256;-71
2022/05/28 00:24:48;;;;;;;5.93;3.40;;;10.00;99.90;;;;;;4196257;28;20530;-72
2022/05/28 00:26:49;;;;;;;4.40;3.40;;;10.00;99.90;;;;;;4195830;28;20186;-71
2022/05/28 00:28:50;;;;;;;3.37;3.07;;;9.90;99.90;;;;;;4196076;28;20244;-72
2022/05/28 00:30:50;;;;;;;5.33;3.30;;;10.00;99.90;;;;;;4196195;28;20601;-72
2022/05/28 00:32:51;;;;;;;4.17;2.83;;;9.90;99.90;;;;;;4196512;28;20218;-71
2022/05/28 00:34:51;;;;;;;6.53;3.40;;;10.00;99.90;;;;;;4196142;28;20397;-71
2022/05/28 00:36:52;;;;;;;3.87;3.27;;;10.00;99.90;;;;;;4195399;28;20269;-73
2022/05/28 00:38:52;;;;;;;6.57;3.87;;;10.10;99.90;;;;;;4195806;28;20194;-71
2022/05/28 00:40:56;;;;;;;4.43;3.07;;;10.20;99.90;;;;;;4196140;28;20213;-70
2022/05/28 00:42:59;;;;;;;4.97;3.47;;;10.40;99.90;;;;;;4196389;28;20664;-71
2022/05/28 00:44:59;;;;;;;4.87;2.90;;;10.50;99.90;;;;;;4195918;28;20205;-71
2022/05/28 00:47:00;;;;;;;5.13;3.87;;;10.60;99.90;;;;;;4195565;28;20188;-71
2022/05/28 00:49:04;;;;;;;5.17;3.03;;;10.60;99.90;;;;;;4195954;28;20579;-72
2022/05/28 00:51:09;;;;;;;4.27;3.37;;;10.60;99.90;;;;;;4195914;28;20190;-71
2022/05/28 00:53:10;;;;;;;3.23;2.73;;;10.60;99.90;;;;;;4196250;28;20221;-71
2022/05/28 00:55:11;;;;;;;6.83;3.37;;;10.60;99.90;;;;;;4195525;28;20182;-71
2022/05/28 00:57:14;;;;;;;4.10;2.93;;;10.70;99.90;;;;;;4195283;28;20192;-70
2022/05/28 00:59:15;;;;;;;5.07;3.30;;;10.80;99.90;;;;;;4195777;28;20184;-71
2022/05/28 01:01:21;;;;;;;4.23;2.80;;;10.80;99.90;;;;;;4195751;28;20206;-71
2022/05/28 01:03:48;;;;;;;3.63;3.10;;;10.90;99.90;;;;;;4196104;28;20251;-71
2022/05/28 01:06:03;;;;;;;4.70;2.30;;;10.90;99.90;;;;;;4195363;28;20182;-71
2022/05/28 01:08:21;;;;;;;4.13;2.33;;;10.70;98.00;;;;;;4195633;28;20182;-71
2022/05/28 01:10:28;;;;;;;4.73;2.97;;;10.60;98.50;;;;;;4195623;28;20160;-71
2022/05/28 01:12:44;;;;;;;4.57;2.80;;;10.60;99.70;;;;;;4195538;28;20215;-71
2022/05/28 01:14:52;;;;;;;4.80;2.70;;;10.70;99.90;;;;;;4195403;28;20179;-71
2022/05/28 01:16:57;;;;;;;2.80;2.47;;;10.80;99.90;;;;;;4194828;28;20205;-72
2022/05/28 01:19:10;;;;;;;4.17;2.80;;;10.90;99.90;;;;;;4194727;28;20187;-71
2022/05/28 01:21:36;;;;;;;5.47;2.73;;;10.90;99.90;;;;;;4195378;28;20219;-71
2022/05/28 01:23:45;;;;;;;4.50;3.10;;;11.00;99.90;;;;;;4195537;28;20721;-71
2022/05/28 01:26:06;;;;;;;4.77;2.60;;;11.10;99.70;;;;;;4194969;28;20191;-72
2022/05/28 01:28:13;;;;;;;2.97;2.40;;;11.20;99.30;;;;;;4195296;28;20153;-71
2022/05/28 01:30:16;;;;;;;3.27;2.30;;;11.20;99.00;;;;;;4195495;28;20168;-71
2022/05/28 01:32:18;;;;;;;4.40;2.80;;;11.20;99.00;;;;;;4195327;28;20648;-71
2022/05/28 01:34:20;;;;;;;4.50;3.40;;;11.20;99.00;;;;;;4195488;28;20180;-71
2022/05/28 01:36:21;;;;;;;6.60;2.97;;;11.30;98.90;;;;;;4194792;28;20187;-70
2022/05/28 01:38:23;;;;;;;3.30;3.00;;;11.20;99.00;;;;;;4195510;28;20188;-71
2022/05/28 01:40:24;;;;;;;5.60;2.43;;;11.20;99.40;;;;;;4195001;28;20184;-71
2022/05/28 01:42:26;;;;;;;3.30;2.40;;;11.30;99.40;;;;;;4195039;28;20288;-71
2022/05/28 01:44:28;;;;;;;3.17;2.40;;;11.40;98.80;;;;;;4195128;28;20183;-71
2022/05/28 01:46:32;;;;;;;4.03;2.53;;;11.40;98.60;;;;;;4194525;28;20190;-71
2022/05/28 01:48:33;;;;;;;4.37;2.83;;;11.50;98.80;;;;;;4195096;28;20171;-72
2022/05/28 01:50:38;;;;;;;5.13;3.53;;;11.40;98.80;;;;;;4194881;28;20186;-71
2022/05/28 01:52:40;;;;;;;5.33;3.43;;;11.40;98.90;;;;;;4194913;28;20206;-72
2022/05/28 01:54:44;;;;;;;4.57;3.60;;;11.40;98.80;;;;;;4195021;28;20191;-72
2022/05/28 01:56:50;;;;;;;5.33;3.27;;;11.50;98.40;;;;;;4194418;28;20630;-72
2022/05/28 01:58:51;;;;;;;4.73;3.00;;;11.50;98.60;;;;;;4195079;28;20716;-72
2022/05/28 02:00:52;;;;;;;6.47;3.43;;;11.50;98.50;;;;;;4195026;28;20187;-71
2022/05/28 02:02:55;;;;;;;4.93;3.60;;;11.50;98.60;;;;;;4194877;28;20685;-71
2022/05/28 02:04:56;;;;;;;4.57;3.20;;;11.50;98.40;;;;;;4195007;28;20180;-71
2022/05/28 02:06:57;;;;;;;8.03;4.40;;;11.40;98.60;;;;;;4194630;28;20874;-73
2022/05/28 02:08:58;;;;;;;7.37;4.33;;;11.50;98.40;;;;;;4194974;28;20194;-72
2022/05/28 02:11:09;;;;;;;5.27;3.83;;;11.30;98.70;;;;;;4194812;28;20172;-72
2022/05/28 02:13:23;;;;;;;10.60;4.90;;;11.20;99.30;;;;;;4195180;28;20282;-71
2022/05/28 02:15:46;;;;;;;5.30;4.40;;;11.00;99.60;;;;;;4194580;28;20572;-71
2022/05/28 02:18:16;;;;;;;6.77;4.13;;;11.00;99.90;;;;;;4194932;28;20178;-72
2022/05/28 02:20:28;;;;;;;7.33;4.67;;;10.90;99.90;;;;;;4194753;28;20183;-71
2022/05/28 02:22:48;;;;;;;7.73;4.37;;;11.00;99.90;;;;;;4194890;28;20297;-71
2022/05/28 02:24:55;;;;;;;5.03;4.13;;;11.00;99.90;;;;;;4194396;28;20171;-71
2022/05/28 02:27:02;;;;;;;8.00;4.53;;;11.10;99.90;;;;;;4194560;28;20171;-72
2022/05/28 02:29:04;;;;;;;4.47;3.90;;;10.90;99.50;;;;;;4194963;28;20170;-71
2022/05/28 02:31:23;;;;;;;6.83;4.60;;;10.90;99.70;;;;;;4195663;28;20632;-72
2022/05/28 02:33:24;;;;;;;6.70;4.03;;;11.00;99.60;;;;;;4195818;28;20199;-74
2022/05/28 02:35:24;;;;;;;5.60;4.10;;;11.00;99.70;;;;;;4192878;28;20272;-72
2022/05/28 02:37:26;;;;;;;5.00;3.90;;;11.00;99.50;;;;;;4197888;28;20184;-71
2022/05/28 02:39:27;;;;;;;4.97;3.80;;;11.00;99.40;;;;;;4197835;28;20660;-72
2022/05/28 02:41:27;;;;;;;5.87;4.20;;;10.90;99.80;;;;;;4197848;28;20203;-72
2022/05/28 02:43:29;;;;;;;8.23;4.00;;;10.80;99.90;;;;;;4196871;28;20670;-72
2022/05/28 02:45:30;;;;;;;5.70;4.10;;;10.80;99.90;;;;;;4197128;28;20601;-72
2022/05/28 02:47:30;;;;;;;5.83;4.20;;;10.80;99.90;;;;;;4197904;28;20191;-73
2022/05/28 02:49:31;;;;;;;5.47;3.90;;;10.80;99.90;;;;;;4197752;28;20218;-72
2022/05/28 02:51:32;;;;;;;7.47;4.23;;;10.80;99.90;;;;;;4196527;28;20198;-71
2022/05/28 02:53:33;;;;;;;6.60;4.43;;;10.80;99.90;;;;;;4197991;28;20241;-73
2022/05/28 02:55:34;;;;;;;7.13;4.20;;;10.70;99.90;;;;;;4196928;28;20187;-74
2022/05/28 02:57:35;;;;;;;5.00;4.10;;;10.70;99.90;;;;;;4197660;28;20661;-72
2022/05/28 02:59:35;;;;;;;6.50;4.17;;;10.60;99.90;;;;;;4197792;28;20182;-73
2022/05/28 03:01:36;;;;;;;6.43;4.33;;;10.60;99.90;;;;;;4197453;28;20223;-73
2022/05/28 03:03:37;;;;;;;8.70;4.60;;;10.50;99.90;;;;;;4197748;28;20238;-73
2022/05/28 03:05:37;;;;;;;5.37;4.63;;;10.50;99.90;;;;;;4197055;28;20557;-73
2022/05/28 03:07:38;;;;;;;7.20;4.50;;;10.40;99.90;;;;;;4197411;28;20215;-73
2022/05/28 03:09:38;;;;;;;5.90;4.30;;;10.50;99.90;;;;;;4197483;28;20592;-72
2022/05/28 03:11:39;;;;;;;5.43;4.37;;;10.60;99.90;;;;;;4197323;28;20183;-73
2022/05/28 03:13:40;;;;;;;6.27;4.60;;;10.60;99.90;;;;;;4197755;28;20222;-73
2022/05/28 03:15:41;;;;;;;7.07;4.10;;;10.60;99.90;;;;;;4196873;28;20603;-74
2022/05/28 03:17:41;;;;;;;7.03;4.00;;;10.50;99.90;;;;;;4197297;28;20176;-73
2022/05/28 03:19:42;;;;;;;5.87;4.00;;;10.60;99.90;;;;;;4197483;28;20263;-74
2022/05/28 03:21:42;;;;;;;5.10;3.77;;;10.60;99.90;;;;;;4197295;28;20206;-73
2022/05/28 03:23:47;;;;;;;7.93;4.33;;;10.70;99.90;;;;;;4197156;28;20199;-74
2022/05/28 03:25:48;;;;;;;6.73;4.87;;;10.70;99.90;;;;;;4196841;28;20194;-74
2022/05/28 03:27:48;;;;;;;5.20;3.97;;;10.70;99.90;;;;;;4197086;28;20267;-74
2022/05/28 03:29:49;;;;;;;5.53;4.47;;;10.70;99.90;;;;;;4197203;28;20775;-74
2022/05/28 03:31:50;;;;;;;5.93;5.00;;;10.80;99.90;;;;;;4197286;28;20290;-74
2022/05/28 03:33:50;;;;;;;5.73;4.50;;;10.80;99.90;;;;;;4197304;28;20931;-74
2022/05/28 03:35:51;;;;;;;6.67;4.80;;;10.80;99.90;;;;;;4196655;28;20220;-75
2022/05/28 03:37:51;;;;;;;8.53;5.10;;;10.80;99.80;;;;;;4197170;28;20210;-74
2022/05/28 03:39:52;;;;;;;8.43;4.73;;;10.70;99.60;;;;;;4197074;28;20851;-74
2022/05/28 03:41:52;;;;;;;10.27;5.40;;;10.60;99.90;;;;;;4196663;28;20194;-73
2022/05/28 03:43:53;;;;;;;7.53;4.40;;;10.50;99.90;;;;;;4196875;28;20238;-74
2022/05/28 03:45:54;;;;;;;7.97;4.20;;;10.40;99.90;;;;;;4196712;28;20237;-74
2022/05/28 03:47:56;;;;;;;5.80;4.53;;;10.40;99.90;;;;;;4197137;28;20175;-74
2022/05/28 03:49:57;;;;;;;7.13;5.10;;;10.20;99.90;;;;;;4197132;28;20699;-75
2022/05/28 03:51:57;;;;;;;8.80;4.90;;;10.10;99.90;;;;;;4196972;28;20211;-73
2022/05/28 03:53:58;;;;;;;11.27;5.13;;;10.10;99.90;;;;;;4197016;28;20175;-73
2022/05/28 03:55:59;;;;;;;8.37;5.60;;;10.00;99.90;;;;;;4196408;28;20675;-73
2022/05/28 03:58:00;;;;;;;10.80;5.90;;;10.10;99.90;;;;;;4197058;28;20189;-74
2022/05/28 04:00:01;;;;;;;8.30;5.80;;;10.10;99.90;;;;;;4196844;28;20179;-74
2022/05/28 04:02:03;;;;;;;7.30;5.53;;;10.20;99.90;;;;;;4196725;28;20179;-74
2022/05/28 04:04:04;;;;;;;7.60;5.60;;;10.10;99.90;;;;;;4196903;28;20179;-74
2022/05/28 04:06:05;;;;;;;8.00;6.43;;;10.20;99.90;;;;;;4196137;28;20188;-73
2022/05/28 04:08:06;;;;;;;6.93;5.60;;;10.10;99.90;;;;;;4196646;28;20264;-72
2022/05/28 04:10:08;;;;;;;10.87;6.40;;;10.10;99.90;;;;;;4196654;28;20812;-72
2022/05/28 04:12:09;;;;;;;8.73;5.50;;;10.10;99.90;;;;;;4196555;28;20565;-73
2022/05/28 04:14:10;;;;;;;7.70;5.13;;;10.00;99.90;;;;;;4196629;28;20190;-75
2022/05/28 04:16:11;;;;;;;8.37;6.50;;;10.10;99.90;;;;;;4196062;28;20973;-71
2022/05/28 04:18:11;;;;;;;10.70;6.77;;;10.00;99.90;;;;;;4196507;28;20188;-74
2022/05/28 04:20:13;;;;;;;7.73;6.60;;;10.00;99.90;;;;;;4196600;28;20725;-74
2022/05/28 04:22:14;;;;;;;7.17;6.10;;;9.90;99.90;;;;;;4196161;28;20707;-72
2022/05/28 04:24:15;;;;;;;7.00;5.60;;;9.90;99.90;;;;;;4196474;28;20179;-72
2022/05/28 04:26:15;;;;;;;8.90;6.30;;;10.00;99.90;;;;;;4195748;28;20197;-73
2022/05/28 04:28:16;;;;;;;9.70;6.50;;;10.00;99.90;;;;;;4196317;28;20190;-74
2022/05/28 04:30:17;;;;;;;8.77;5.10;;;10.00;99.90;;;;;;4196300;28;20188;-74
2022/05/28 04:32:17;;;;;;;9.93;4.57;;;10.10;99.90;;;;;;4196207;28;20594;-74
2022/05/28 04:34:18;;;;;;;9.20;4.00;;;10.10;99.20;;;;;;4196085;28;20647;-74
2022/05/28 04:36:18;;;;;;;7.30;4.43;;;10.10;97.70;;;;;;4195683;28;20191;-74
2022/05/28 04:38:19;;;;;;;9.77;3.80;;;10.20;98.30;;;;;;4195986;28;20261;-72
2022/05/28 04:40:20;;;;;;;5.73;3.50;;;10.30;97.80;;;;;;4196243;28;20721;-73
2022/05/28 04:42:20;;;;;;;12.87;3.63;;;10.30;97.50;;;;;;4196499;28;20211;-73
2022/05/28 04:44:21;;;;;;;6.03;3.23;;;10.50;97.00;;;;;;4196038;28;20262;-74
2022/05/28 04:46:21;;;;;;;6.93;3.10;;;10.30;96.50;;;;;;4195625;28;20188;-72
2022/05/28 04:48:22;;;;;;;6.17;3.03;;;10.30;96.10;;;;;;4195918;28;20186;-74
2022/05/28 04:50:23;;;;;;;9.07;3.00;;;10.30;96.50;;;;;;4194700;28;20860;-73
2022/05/28 04:52:23;;;;;;;6.27;3.10;;;10.30;95.20;;;;;;4195563;28;20261;-73
2022/05/28 04:54:24;;;;;;;8.97;2.77;;;10.20;95.20;;;;;;4194846;28;20240;-73
2022/05/28 04:56:24;;;;;;;7.13;2.90;;;10.20;95.90;;;;;;4195299;28;20211;-74
2022/05/28 04:58:27;;;;;;;5.53;2.53;;;10.10;95.90;;;;;;4195995;28;20176;-72
2022/05/28 05:00:28;;;;;;;5.13;2.73;;;10.20;95.70;;;;;;4195929;28;20195;-71
2022/05/28 05:02:28;;;;;;;4.47;2.87;;;10.20;96.20;;;;;;4196058;28;20242;-72
2022/05/28 05:04:29;;;;;;;7.33;2.83;;;10.50;95.10;;;;;;4195896;28;20195;-74
2022/05/28 05:06:29;;;;;;;7.47;2.80;;;10.50;94.00;;;;;;4195094;28;20279;-72
2022/05/28 05:08:30;;;;;;;5.70;3.13;;;10.50;93.60;;;;;;4195601;28;20855;-73
2022/05/28 05:10:31;;;;;;;5.80;2.50;;;10.60;92.90;;;;;;4195828;28;20185;-73
2022/05/28 05:12:32;;;;;;;8.60;2.70;;;10.70;93.60;;;;;;4195438;28;20313;-74
2022/05/28 05:14:32;;;;;;;6.87;2.50;;;11.00;92.30;;;;;;4195601;28;20217;-72
2022/05/28 05:16:33;;;;;;;7.53;3.03;;;11.10;91.90;;;;;;4194841;28;20321;-72
2022/05/28 05:18:33;;;;;;;5.53;2.87;;;11.10;91.50;;;;;;4195536;28;20270;-74
2022/05/28 05:20:34;;;;;;;6.13;3.13;;;11.10;91.90;;;;;;4195432;28;20183;-72
2022/05/28 05:22:34;;;;;;;9.33;2.30;;;11.30;90.80;;;;;;4195345;28;20199;-73
2022/05/28 05:24:35;;;;;;;6.27;2.90;;;11.00;91.60;;;;;;4195364;28;20240;-72
2022/05/28 05:26:35;;;;;;;6.50;3.13;;;11.10;90.70;;;;;;4194672;28;20560;-73
2022/05/28 05:28:36;;;;;;;5.27;2.37;;;11.40;89.80;;;;;;4195128;28;20190;-73
2022/05/28 05:30:36;;;;;;;6.07;2.47;;;11.50;89.70;;;;;;4195469;28;20217;-72
2022/05/28 05:32:37;;;;;;;4.80;2.40;;;11.60;86.80;;;;;;4195082;28;20654;-72
2022/05/28 05:34:37;;;;;;;11.00;2.93;;;11.60;84.00;;;;;;4195344;28;20244;-71
2022/05/28 05:36:38;;;;;;;6.17;2.23;;;11.20;86.70;;;;;;4194666;28;20664;-72
2022/05/28 05:38:39;;;;;;;8.63;2.50;;;11.40;85.80;;;;;;4195200;28;20293;-73
2022/05/28 05:40:39;;;;;;;5.70;2.57;;;11.40;85.70;;;;;;4195476;28;20262;-72
2022/05/28 05:42:41;;;;;;;6.47;2.77;;;11.00;87.30;;;;;;4195676;28;20203;-73
2022/05/28 05:44:41;;;;;;;6.60;2.33;;;10.90;87.30;;;;;;4195035;28;20187;-73
2022/05/28 05:46:43;;;;;;;4.93;2.43;;;11.10;87.20;;;;;;4194809;28;20184;-72
2022/05/28 05:48:43;;;;;;;8.17;2.97;;;11.10;86.50;;;;;;4195273;28;20585;-72
2022/05/28 05:50:44;;;;;;;8.20;2.97;;;11.00;87.40;;;;;;4195084;28;20225;-72
2022/05/28 05:52:44;;;;;;;4.57;2.80;;;10.70;88.70;;;;;;4195407;28;20563;-72
2022/05/28 05:54:45;;;;;;;5.13;2.40;;;10.60;90.10;;;;;;4195479;28;20281;-72
2022/05/28 05:56:45;;;;;;;7.47;2.77;;;10.80;89.90;;;;;;4195455;28;20179;-72
2022/05/28 05:58:46;;;;;;;7.87;2.70;;;11.20;87.00;;;;;;4195898;28;20191;-72
2022/05/28 06:00:46;;;;;;;5.73;2.53;;;11.20;85.00;;;;;;4196801;28;20180;-73
2022/05/28 06:02:47;;;;;;;4.60;2.27;;;11.10;86.70;;;;;;4195522;28;20187;-73
2022/05/28 06:04:47;;;;;;;10.70;2.70;;;11.30;84.80;;;;;;4195148;28;20175;-73
2022/05/28 06:06:48;;;;;;;4.87;2.43;;;11.50;84.00;;;;;;4194709;28;20195;-73
2022/05/28 06:08:49;;;;;;;7.93;3.00;;;11.50;83.70;;;;;;4195540;28;20188;-72
2022/05/28 06:10:50;;;;;;;7.37;2.37;;;11.70;81.00;;;;;;4194859;28;20171;-73
2022/05/28 06:12:50;;;;;;;5.37;3.00;;;11.80;81.10;;;;;;4195167;28;20875;-72
2022/05/28 06:14:51;;;;;;;5.00;2.53;;;11.90;78.50;;;;;;4195216;28;20180;-74
2022/05/28 06:16:51;;;;;;;55.70;39.87;;;11.90;78.60;;;;;;4194385;28;20183;-75
2022/05/28 06:18:52;;;;;;;8.67;4.83;;;11.90;77.10;;;;;;4195119;28;20186;-73
2022/05/28 06:20:55;;;;;;;5.53;2.90;;;11.60;78.60;;;;;;4196372;28;20269;-74
2022/05/28 06:22:56;;;;;;;5.00;3.43;;;11.90;78.00;;;;;;4195091;28;20199;-74
2022/05/28 06:24:56;;;;;;;9.47;6.30;;;12.20;76.00;;;;;;4194712;28;20179;-75
2022/05/28 06:27:01;;;;;;;11.60;5.80;;;12.00;77.00;;;;;;4194476;28;20540;-73
2022/05/28 06:29:01;;;;;;;7.07;2.60;;;11.90;78.70;;;;;;4195167;28;20187;-74
2022/05/28 06:31:07;;;;;;;8.17;3.17;;;12.10;75.00;;;;;;4195054;28;20171;-74
2022/05/28 06:33:07;;;;;;;6.20;2.40;;;12.40;75.30;;;;;;4195067;28;20294;-74
2022/05/28 06:35:09;;;;;;;5.50;2.60;;;12.70;72.70;;;;;;4194598;28;20658;-75
2022/05/28 06:37:11;;;;;;;5.27;3.07;;;12.80;73.00;;;;;;4194622;28;20982;-74
2022/05/28 06:39:12;;;;;;;4.87;3.37;;;12.80;72.30;;;;;;4195069;28;20184;-74
2022/05/28 06:41:13;;;;;;;4.93;2.73;;;12.80;72.00;;;;;;4194809;28;20180;-75
2022/05/28 06:43:14;;;;;;;5.50;3.00;;;12.80;72.40;;;;;;4193101;28;20204;-75
2022/05/28 06:45:14;;;;;;;8.83;2.70;;;12.80;72.10;;;;;;4194095;28;20191;-75
2022/05/28 06:47:15;;;;;;;6.87;2.63;;;12.70;72.80;;;;;;4194407;28;20183;-74
2022/05/28 06:49:16;;;;;;;10.37;2.73;;;12.90;72.70;;;;;;4194600;28;20180;-74
2022/05/28 06:51:16;;;;;;;7.00;2.87;;;13.10;70.10;;;;;;4194682;28;20211;-75
2022/05/28 06:53:17;;;;;;;5.10;2.20;;;13.20;68.10;;;;;;4194818;28;20549;-74
2022/05/28 06:55:17;;;;;;;8.33;2.47;;;13.10;68.00;;;;;;4194711;28;20614;-75
2022/05/28 06:57:18;;;;;;;10.60;2.10;;;13.00;69.30;;;;;;4194411;28;20180;-74
2022/05/28 06:59:18;;;;;;;6.67;2.47;;;13.30;68.60;;;;;;4194503;28;20180;-74
2022/05/28 07:01:19;;;;;;;8.47;2.40;;;13.20;66.60;;;;;;4194810;28;20560;-75
2022/05/28 07:03:22;;;;;;;5.90;2.57;;;12.90;69.90;;;;;;4194899;28;20216;-74
2022/05/28 07:05:23;;;;;;;4.63;2.40;;;12.80;69.30;;;;;;4193958;28;20176;-73
2022/05/28 07:07:23;;;;;;;5.93;2.60;;;12.70;69.90;;;;;;4194794;28;20526;-72
2022/05/28 07:09:23;;;;;;;6.13;2.40;;;12.50;69.20;;;;;;4194739;28;20175;-74
2022/05/28 07:11:24;;;;;;;3.73;2.50;;;12.80;69.90;;;;;;4194589;28;20212;-72
2022/05/28 07:13:26;;;;;;;7.27;2.87;;;13.10;68.30;;;;;;4194760;28;20214;-72
2022/05/28 07:15:27;;;;;;;4.90;2.27;;;13.00;68.60;;;;;;4194264;28;20256;-71
2022/05/28 07:17:27;;;;;;;7.30;3.07;;;13.00;70.00;;;;;;4196452;28;20184;-71
2022/05/28 07:19:29;;;;;;;4.17;2.30;;;13.00;69.60;;;;;;4197785;28;20190;-71
2022/05/28 07:21:29;;;;;;;6.23;2.13;;;13.30;70.20;;;;;;4197542;28;20282;-71
2022/05/28 07:23:31;;;;;;;4.17;2.13;;;13.40;68.30;;;;;;4197787;28;20203;-71
2022/05/28 07:25:33;;;;;;;4.87;2.50;;;12.80;70.20;;;;;;4197127;28;20665;-72
2022/05/28 07:27:34;;;;;;;9.23;3.03;;;12.70;70.00;;;;;;4197727;28;20184;-73
2022/05/28 07:29:34;;;;;;;5.30;2.60;;;12.70;69.90;;;;;;4197509;28;20221;-73
2022/05/28 07:31:35;;;;;;;7.37;2.83;;;12.70;68.80;;;;;;4197324;28;20243;-72
2022/05/28 07:33:38;;;;;;;4.70;2.30;;;12.50;69.80;;;;;;4197525;28;20268;-71
2022/05/28 07:35:38;;;;;;;7.53;2.10;;;12.70;70.80;;;;;;4196688;28;20275;-73
2022/05/28 07:37:39;;;;;;;3.10;2.00;;;12.90;70.10;;;;;;4197374;28;20180;-70
2022/05/28 07:39:39;;;;;;;5.77;2.10;;;13.30;68.30;;;;;;4197405;28;20203;-72
2022/05/28 07:41:40;;;;;;;4.13;2.17;;;13.40;67.90;;;;;;4197189;28;20187;-71
2022/05/28 07:43:41;;;;;;;4.90;2.10;;;13.40;66.50;;;;;;4197015;28;20210;-72
2022/05/28 07:45:43;;;;;;;3.00;1.80;;;13.00;67.90;;;;;;4196455;28;20186;-71
2022/05/28 07:47:44;;;;;;;4.50;1.80;;;12.90;69.10;;;;;;4197157;28;20171;-72
2022/05/28 07:49:45;;;;;;;4.03;2.33;;;13.00;68.40;;;;;;4197149;28;20552;-72
2022/05/28 07:51:45;;;;;;;6.57;2.23;;;13.00;67.10;;;;;;4196777;28;20266;-72
2022/05/28 07:53:46;;;;;;;3.57;2.70;;;13.00;67.50;;;;;;4196834;28;20203;-71
2022/05/28 07:55:46;;;;;;;4.13;2.47;;;12.70;68.50;;;;;;4196433;28;20179;-71
2022/05/28 07:57:47;;;;;;;4.37;2.97;;;12.50;69.80;;;;;;4196719;28;20168;-71
2022/05/28 07:59:47;;;;;;;6.80;2.93;;;12.30;72.00;;;;;;4196727;28;20233;-71
2022/05/28 08:01:48;;;;;;;6.67;2.40;;;12.40;73.70;;;;;;4196828;28;20195;-71
2022/05/28 08:03:49;;;;;;;4.03;2.30;;;12.60;72.60;;;;;;4196583;28;20203;-71
2022/05/28 08:05:51;;;;;;;7.20;2.30;;;12.90;71.20;;;;;;4195931;28;20258;-70
2022/05/28 08:07:52;;;;;;;3.93;1.93;;;12.90;69.50;;;;;;4196588;28;20194;-72
2022/05/28 08:09:52;;;;;;;5.37;2.60;;;13.20;68.80;;;;;;4196524;28;20207;-72
2022/05/28 08:11:53;;;;;;;8.37;2.50;;;13.30;69.80;;;;;;4196291;28;20254;-72
2022/05/28 08:13:54;;;;;;;5.70;2.23;;;13.60;66.60;;;;;;4196396;28;20682;-72
2022/05/28 08:15:55;;;;;;;7.90;2.40;;;13.40;66.10;;;;;;4195114;28;20172;-72
2022/05/28 08:17:56;;;;;;;6.93;2.60;;;13.20;68.10;;;;;;4196647;28;20182;-72
2022/05/28 08:19:56;;;;;;;5.80;2.10;;;13.10;68.60;;;;;;4196365;28;20233;-72
2022/05/28 08:24:16;;;;;;;4.23;2.43;;;13.50;69.40;;;;;;4196426;28;20663;-71
2022/05/28 08:26:20;;;;;;;3.33;2.00;;;13.70;67.50;;;;;;4195779;28;20180;-71
2022/05/28 08:28:22;;;;;;;5.60;2.83;;;13.90;64.40;;;;;;4195404;28;20191;-72
2022/05/28 08:30:22;;;;;;;9.50;2.63;;;13.90;64.50;;;;;;4196238;28;20270;-72
2022/05/28 08:32:23;;;;;;;5.67;2.70;;;14.00;69.30;;;;;;4196074;28;20215;-71
2022/05/28 08:34:23;;;;;;;5.87;2.27;;;14.10;67.50;;;;;;4196130;28;20214;-72
2022/05/28 08:36:25;;;;;;;6.67;2.77;;;14.20;65.20;;;;;;4195367;28;20607;-72
2022/05/28 08:38:27;;;;;;;6.10;2.90;;;14.40;64.50;;;;;;4196265;28;20290;-72
2022/05/28 08:40:27;;;;;;;6.87;2.80;;;14.30;63.00;;;;;;4196178;28;20171;-72
2022/05/28 08:42:28;;;;;;;6.43;2.30;;;14.60;63.70;;;;;;4195841;28;20203;-72
2022/05/28 08:44:49;;;;;;;6.57;2.50;;;14.70;60.70;;;;;;4196233;28;20183;-72
2022/05/28 08:47:22;;;;;;;5.67;2.40;;;14.50;61.70;;;;;;4196342;28;20186;-71
2022/05/28 08:49:26;;;;;;;6.87;2.50;;;14.60;60.50;;;;;;4196001;28;20188;-71
2022/05/28 08:51:48;;;;;;;6.83;2.90;;;14.40;60.60;;;;;;4195942;28;20622;-71
2022/05/28 08:53:56;;;;;;;4.03;2.57;;;14.40;58.80;;;;;;4195736;28;20209;-71
2022/05/28 08:55:58;;;;;;;6.00;2.23;;;14.70;58.30;;;;;;4195491;28;20516;-71
2022/05/28 08:58:01;;;;;;;6.77;2.47;;;14.90;58.70;;;;;;4196328;28;20183;-71
2022/05/28 09:00:16;;;;;;;6.07;2.37;;;14.70;59.80;;;;;;4195481;28;20172;-72
2022/05/28 09:02:40;;;;;;;7.53;2.53;;;15.10;57.00;;;;;;4196330;28;20184;-73
2022/05/28 09:04:42;;;;;;;5.80;2.27;;;15.30;55.50;;;;;;4196993;28;20183;-73
2022/05/28 09:06:54;;;;;;;7.20;3.10;;;15.40;56.50;;;;;;4196448;28;20179;-70
2022/05/28 09:08:56;;;;;;;6.23;2.47;;;15.60;54.80;;;;;;4197515;28;20668;-73
2022/05/28 09:11:01;;;;;;;4.60;2.33;;;15.50;53.90;;;;;;4197180;28;20294;-73
2022/05/28 09:13:24;;;;;;;6.20;2.20;;;15.80;54.80;;;;;;4197623;28;20221;-72
2022/05/28 09:15:25;;;;;;;5.07;2.20;;;15.80;54.40;;;;;;4196459;28;20162;-73
2022/05/28 09:17:38;;;;;;;9.43;2.23;;;15.80;55.70;;;;;;4196933;28;20211;-72
2022/05/28 09:19:41;;;;;;;6.57;2.50;;;15.70;53.30;;;;;;4196854;28;20179;-72
2022/05/28 09:21:44;;;;;;;5.57;2.53;;;15.50;54.10;;;;;;4197108;28;20257;-73
2022/05/28 09:23:50;;;;;;;6.33;2.10;;;16.00;53.60;;;;;;4196971;28;20202;-72
2022/05/28 09:25:56;;;;;;;7.20;2.13;;;15.80;52.40;;;;;;4196493;28;20172;-72
2022/05/28 09:28:34;;;;;;;4.70;1.97;;;15.50;54.60;;;;;;4197238;28;20513;-73
2022/05/28 09:30:52;;;;;;;4.50;2.00;;;15.60;52.00;;;;;;4197357;28;20167;-71
2022/05/28 09:33:09;;;;;;;6.73;2.70;;;15.50;55.20;;;;;;4196934;28;20575;-75
2022/05/28 09:35:16;;;;;;;4.23;2.10;;;16.00;53.30;;;;;;4196808;28;20168;-72
2022/05/28 09:37:23;;;;;;;5.10;2.47;;;16.10;53.30;;;;;;4196429;28;20185;-73
2022/05/28 09:39:49;;;;;;;5.97;2.40;;;16.50;53.40;;;;;;4196664;28;20232;-72
2022/05/28 09:42:04;;;;;;;5.63;2.00;;;16.00;50.80;;;;;;4196937;28;20841;-73
2022/05/28 09:44:38;;;;;;;7.60;2.33;;;16.50;50.00;;;;;;4197132;28;20171;-72
2022/05/28 09:46:41;;;;;;;3.60;1.93;;;16.90;47.70;;;;;;4196572;28;20170;-72
2022/05/28 09:48:42;;;;;;;4.03;2.00;;;16.60;46.20;;;;;;4196854;28;20259;-72
2022/05/28 09:50:43;;;;;;;4.33;1.90;;;16.80;48.40;;;;;;4196788;28;20657;-72
2022/05/28 09:55:18;;;;;;;5.23;1.83;;;17.10;48.40;;;;;;4196713;28;20171;-72
2022/05/28 09:57:26;;;;;;;5.97;2.10;;;17.10;49.00;;;;;;4196627;28;20646;-73
2022/05/28 09:59:45;;;;;;;6.30;2.40;;;17.70;46.60;;;;;;4196874;28;20179;-72
2022/05/28 10:01:59;;;;;;;5.40;2.60;;;17.40;46.80;;;;;;4196817;28;20262;-72
2022/05/28 10:06:23;;;;;;;3.70;1.73;;;17.50;44.90;;;;;;4196172;28;20732;-72
2022/05/28 10:08:31;;;;;;;6.53;2.20;;;16.90;46.60;;;;;;4196791;28;20188;-72
2022/05/28 10:10:35;;;;;;;3.70;1.70;;;16.60;47.60;;;;;;4195934;28;20225;-71
2022/05/28 10:12:35;;;;;;;2.43;1.30;;;16.10;46.60;;;;;;4195434;28;20931;-72
2022/05/28 10:14:36;;;;;;;3.73;1.50;;;16.70;45.30;;;;;;4193171;28;20183;-73
2022/05/28 10:16:40;;;;;;;2.77;1.30;;;17.00;44.10;;;;;;4204341;28;20183;-73
2022/05/28 10:18:50;;;;;;;3.90;1.47;;;17.00;45.70;;;;;;4204486;28;20247;-74
2022/05/28 10:21:14;;;;;;;4.60;1.70;;;17.30;42.00;;;;;;4207102;28;20661;-73
2022/05/28 10:23:19;;;;;;;1.53;1.40;;;16.80;42.90;;;;;;4214983;28;20195;-74
2022/05/28 10:25:29;;;;;;;3.60;1.60;;;17.00;42.00;;;;;;4210694;28;20595;-73
2022/05/28 10:27:34;;;;;;;4.23;1.77;;;16.90;43.10;;;;;;4196145;28;20245;-71
2022/05/28 10:29:41;;;;;;;3.77;1.40;;;17.10;42.50;;;;;;4179558;28;20608;-70
2022/05/28 10:31:41;;;;;;;3.87;1.73;;;16.90;43.00;;;;;;4211146;28;20202;-72
2022/05/28 10:33:44;;;;;;;4.13;2.10;;;16.80;43.80;;;;;;4196663;28;20735;-71
2022/05/28 10:35:45;;;;;;;5.33;2.07;;;16.70;41.30;;;;;;4210979;28;20206;-71
2022/05/28 10:37:46;;;;;;;4.47;1.60;;;17.40;39.80;;;;;;4197132;28;20183;-74
2022/05/28 10:39:48;;;;;;;2.47;1.67;;;18.50;38.00;;;;;;4211658;28;20729;-73
2022/05/28 10:41:52;;;;;;;3.93;1.47;;;18.70;35.90;;;;;;4198458;28;20179;-73
2022/05/28 10:43:52;;;;;;;2.37;1.60;;;18.90;40.30;;;;;;4210354;28;20199;-73
2022/05/28 10:46:01;;;;;;;2.30;1.60;;;19.30;34.30;;;;;;4198009;28;20213;-73
2022/05/28 10:48:23;;;;;;;3.57;1.70;;;19.40;39.10;;;;;;4206627;28;20263;-71
2022/05/28 10:50:55;;;;;;;2.43;1.60;;;20.00;32.20;;;;;;4194990;28;20817;-73